Benaguasil, Spain
Current Conditions -  °F | °C
As of 3:00 PM on Sunday 21 Dec 2014 (Local Time) from LEBT Reporting Station
Clear Clear  
Wind Chill: 63°   Ceiling: Unl
Heat Index: 63°   Visibility: 6mi
Dew Point: 45°   Wind: 2mph
Humidity: 52%   Direction: NA
Pressure: 30.42"   Gusts: NA
Location:  39.6°N, 0.58°W
Report Text: LEBT 211400Z AUTO VRB02KT CAVOK 17/07 Q1030
Loading
Personal Weather Stations






























Interactive Weather Map New forecast layout! Learn more

10-Day Weather Forecast

Advertisements
Track Severe Weather on mobile